createdAt,value
2022-08-28T00:00:18.107Z,10.00
2022-08-28T00:01:18.048Z,10.70
2022-08-28T00:02:17.905Z,11.10
2022-08-28T00:03:17.869Z,9.80
2022-08-28T00:04:17.966Z,12.90
2022-08-28T00:05:17.885Z,8.60
2022-08-28T00:06:17.891Z,9.90
2022-08-28T00:07:17.909Z,9.90
2022-08-28T00:08:17.891Z,12.40
2022-08-28T00:09:17.844Z,11.40
2022-08-28T00:10:17.876Z,8.70
2022-08-28T00:11:17.839Z,11.60
2022-08-28T00:12:17.843Z,8.70
2022-08-28T00:13:17.858Z,10.50
2022-08-28T00:14:17.934Z,10.80
2022-08-28T00:15:17.886Z,10.10
2022-08-28T00:16:17.911Z,12.50
2022-08-28T00:17:17.900Z,11.80
2022-08-28T00:18:17.872Z,10.00
2022-08-28T00:19:17.937Z,11.10
2022-08-28T00:20:17.897Z,9.80
2022-08-28T00:21:17.933Z,12.50
2022-08-28T00:22:17.830Z,10.10
2022-08-28T00:23:17.992Z,11.00
2022-08-28T00:24:17.816Z,11.40
2022-08-28T00:25:17.835Z,9.90
2022-08-28T00:26:17.860Z,10.30
2022-08-28T00:27:18.488Z,14.10
2022-08-28T00:28:23.389Z,10.50
2022-08-28T00:29:18.803Z,12.80
2022-08-28T00:30:17.838Z,10.50
2022-08-28T00:31:17.841Z,11.80
2022-08-28T00:32:17.779Z,10.60
2022-08-28T00:33:17.798Z,10.80
2022-08-28T00:34:17.766Z,13.00
2022-08-28T00:35:17.774Z,12.30
2022-08-28T00:36:17.790Z,9.90
2022-08-28T00:37:17.778Z,11.60
2022-08-28T00:38:17.837Z,8.50
2022-08-28T00:39:17.759Z,10.30
2022-08-28T00:40:17.833Z,10.40
2022-08-28T00:41:18.734Z,10.80
2022-08-28T00:42:18.749Z,9.90
2022-08-28T00:43:17.688Z,12.00
2022-08-28T00:44:17.978Z,9.70
2022-08-28T00:45:17.714Z,12.80
2022-08-28T00:46:17.675Z,11.10
2022-08-28T00:47:17.667Z,9.50
2022-08-28T00:48:17.672Z,12.30
2022-08-28T00:49:17.726Z,7.80
2022-08-28T00:50:17.697Z,13.40
2022-08-28T00:51:17.593Z,10.30
2022-08-28T00:52:17.569Z,9.60
2022-08-28T00:53:17.584Z,11.80
2022-08-28T00:54:17.517Z,11.10
2022-08-28T00:55:17.558Z,8.90
2022-08-28T00:56:17.537Z,7.70
2022-08-28T00:57:17.513Z,10.10
2022-08-28T00:58:17.506Z,12.90
2022-08-28T00:59:17.497Z,10.70
2022-08-28T01:00:17.550Z,10.30
2022-08-28T01:01:17.524Z,10.60
2022-08-28T01:02:17.478Z,8.80
2022-08-28T01:03:17.605Z,16.30
2022-08-28T01:04:17.466Z,12.80
2022-08-28T01:05:17.512Z,11.60
2022-08-28T01:06:17.476Z,11.40
2022-08-28T01:07:17.444Z,13.30
2022-08-28T01:08:17.403Z,10.50
2022-08-28T01:09:20.919Z,8.70
2022-08-28T01:10:17.427Z,11.40
2022-08-28T01:11:17.514Z,14.30
2022-08-28T01:12:17.460Z,9.40
2022-08-28T01:13:17.471Z,11.70
2022-08-28T01:14:17.471Z,11.10
2022-08-28T01:15:17.475Z,10.90
2022-08-28T01:16:17.578Z,10.00
2022-08-28T01:17:17.493Z,11.20
2022-08-28T01:18:17.490Z,10.60
2022-08-28T01:19:17.439Z,14.90
2022-08-28T01:20:17.497Z,13.80
2022-08-28T01:21:20.405Z,11.20
2022-08-28T01:22:17.405Z,8.40
2022-08-28T01:23:17.425Z,14.10
2022-08-28T01:24:17.409Z,12.10
2022-08-28T01:25:17.427Z,13.70
2022-08-28T01:26:17.505Z,7.60
2022-08-28T01:27:17.381Z,13.60
2022-08-28T01:28:17.416Z,10.80
2022-08-28T01:29:17.394Z,9.20
2022-08-28T01:30:17.480Z,12.20
2022-08-28T01:31:17.507Z,11.40
2022-08-28T01:32:17.471Z,9.00
2022-08-28T01:33:17.341Z,8.00
2022-08-28T01:34:17.339Z,9.20
2022-08-28T01:35:17.371Z,12.60
2022-08-28T01:36:17.342Z,12.80
2022-08-28T01:37:17.346Z,13.10
2022-08-28T01:38:21.947Z,13.30
2022-08-28T01:39:18.298Z,7.90
2022-08-28T01:40:17.322Z,14.20
2022-08-28T01:41:17.343Z,9.10
2022-08-28T01:42:17.298Z,9.90
2022-08-28T01:43:17.247Z,7.80
2022-08-28T01:44:18.002Z,8.00
2022-08-28T01:45:17.278Z,11.20
2022-08-28T01:46:17.220Z,10.70
2022-08-28T01:47:17.294Z,10.60
2022-08-28T03:03:48.141Z,12.40
2022-08-28T03:04:49.367Z,10.50
2022-08-28T03:05:49.404Z,12.40
2022-08-28T03:06:49.406Z,11.70
2022-08-28T03:07:49.425Z,11.70
2022-08-28T03:08:49.424Z,10.60
2022-08-28T03:09:49.371Z,10.80
2022-08-28T03:10:49.425Z,13.40
2022-08-28T03:11:49.366Z,16.00
2022-08-28T03:12:49.356Z,13.90
2022-08-28T03:13:49.349Z,12.20
2022-08-28T03:14:49.363Z,15.40
2022-08-28T03:15:51.945Z,11.50
2022-08-28T03:16:50.352Z,13.50
2022-08-28T03:17:49.330Z,10.70
2022-08-28T03:18:49.336Z,15.60
2022-08-28T03:19:49.288Z,12.30
2022-08-28T03:20:49.273Z,12.60
2022-08-28T03:21:49.320Z,10.40
2022-08-28T03:22:49.277Z,12.20
2022-08-28T03:23:49.247Z,13.30
2022-08-28T03:24:49.273Z,11.50
2022-08-28T03:25:49.238Z,14.10
2022-08-28T03:26:49.234Z,11.80
2022-08-28T03:27:49.302Z,15.50
2022-08-28T03:28:49.223Z,11.60
2022-08-28T03:29:49.262Z,12.70
2022-08-28T03:30:49.211Z,15.20
2022-08-28T03:31:49.542Z,12.90
2022-08-28T03:32:49.118Z,13.10
2022-08-28T03:33:49.133Z,15.30
2022-08-28T03:34:49.147Z,15.30
2022-08-28T03:35:49.108Z,14.40
2022-08-28T03:36:50.074Z,10.80
2022-08-28T03:37:49.100Z,16.80
2022-08-28T03:38:49.097Z,15.30
2022-08-28T03:39:49.110Z,18.00
2022-08-28T03:40:49.040Z,12.80
2022-08-28T03:41:49.037Z,13.80
2022-08-28T03:42:53.018Z,15.10
2022-08-28T03:43:49.114Z,15.00
2022-08-28T03:44:49.037Z,14.20
2022-08-28T03:45:49.047Z,14.00
2022-08-28T03:46:49.032Z,17.00
2022-08-28T03:47:49.100Z,15.20
2022-08-28T03:48:49.043Z,13.40
2022-08-28T03:49:49.034Z,13.90
2022-08-28T03:50:49.084Z,16.90
2022-08-28T03:51:49.033Z,10.50
2022-08-28T03:52:49.093Z,19.70
2022-08-28T03:53:49.429Z,16.30
2022-08-28T03:54:49.155Z,13.50
2022-08-28T03:55:49.021Z,13.70
2022-08-28T03:56:49.032Z,12.30
2022-08-28T03:57:49.015Z,13.20
2022-08-28T03:58:48.991Z,16.30
2022-08-28T03:59:49.095Z,14.70
2022-08-28T04:00:48.966Z,12.10
2022-08-28T04:01:48.984Z,17.90
2022-08-28T04:02:48.967Z,14.80
2022-08-28T04:03:48.983Z,15.10
2022-08-28T04:04:48.971Z,14.60
2022-08-28T04:05:48.961Z,13.40
2022-08-28T04:06:48.971Z,17.20
2022-08-28T04:07:48.949Z,18.70
2022-08-28T04:08:48.941Z,13.90
2022-08-28T04:09:48.955Z,14.60
2022-08-28T04:10:48.913Z,14.40
2022-08-28T04:11:48.946Z,13.90
2022-08-28T04:12:48.894Z,16.50
2022-08-28T04:13:48.914Z,13.90
2022-08-28T04:14:48.889Z,13.50
2022-08-28T04:15:48.951Z,17.10
2022-08-28T04:16:48.926Z,18.90
2022-08-28T04:17:48.934Z,14.10
2022-08-28T04:18:48.882Z,19.50
2022-08-28T04:19:48.873Z,17.60
2022-08-28T04:20:48.940Z,15.10
2022-08-28T04:21:48.864Z,16.40
2022-08-28T04:22:48.832Z,14.70
2022-08-28T04:23:49.870Z,15.80
2022-08-28T04:24:48.837Z,15.10
2022-08-28T04:25:48.827Z,15.60
2022-08-28T04:26:48.778Z,16.40
2022-08-28T04:27:48.856Z,15.00
2022-08-28T04:28:48.793Z,16.30
2022-08-28T04:29:48.736Z,16.30
2022-08-28T04:30:48.745Z,15.20
2022-08-28T04:31:48.745Z,18.30
2022-08-28T04:32:48.694Z,14.80
2022-08-28T04:33:48.706Z,15.00
2022-08-28T04:34:48.660Z,15.30
2022-08-28T04:35:48.631Z,14.50
2022-08-28T04:36:48.674Z,13.70
2022-08-28T04:37:48.682Z,13.30
2022-08-28T04:38:48.641Z,13.80
2022-08-28T04:39:48.626Z,14.90
2022-08-28T04:40:48.637Z,15.30
2022-08-28T04:41:48.643Z,18.70
2022-08-28T04:42:48.633Z,16.40
2022-08-28T04:43:48.619Z,16.90
2022-08-28T04:44:48.653Z,17.90
2022-08-28T04:45:48.647Z,15.70
2022-08-28T04:46:48.623Z,18.90
2022-08-28T04:47:48.610Z,14.20
2022-08-28T04:48:48.574Z,17.90
2022-08-28T04:50:06.938Z,21.30
2022-08-28T04:50:49.578Z,16.50
2022-08-28T04:51:48.567Z,16.80
2022-08-28T04:52:48.661Z,15.90
2022-08-28T04:53:48.623Z,15.80
2022-08-28T04:54:48.597Z,20.00
2022-08-28T04:55:55.029Z,15.80
2022-08-28T04:56:49.537Z,17.30
2022-08-28T04:57:48.984Z,15.70
2022-08-28T04:58:48.583Z,13.50
2022-08-28T04:59:48.607Z,15.60
2022-08-28T05:00:48.623Z,18.80
2022-08-28T05:01:48.678Z,20.00
2022-08-28T05:02:48.548Z,17.00
2022-08-28T05:03:48.589Z,18.80
2022-08-28T05:04:48.541Z,23.10
2022-08-28T05:05:48.545Z,23.20
2022-08-28T05:06:48.493Z,17.10
2022-08-28T05:07:48.560Z,17.90
2022-08-28T05:08:48.557Z,20.50
2022-08-28T05:09:48.548Z,16.50
2022-08-28T05:10:48.549Z,21.00
2022-08-28T05:11:48.557Z,18.80
2022-08-28T05:12:48.521Z,20.50
2022-08-28T05:13:48.545Z,20.90
2022-08-28T05:14:48.454Z,21.60
2022-08-28T05:15:48.471Z,19.00
2022-08-28T05:16:48.482Z,16.80
2022-08-28T05:17:48.546Z,17.20
2022-08-28T05:18:48.352Z,18.90
2022-08-28T05:19:48.488Z,14.30
2022-08-28T05:20:48.457Z,24.30
2022-08-28T05:21:48.466Z,17.90
2022-08-28T05:22:48.323Z,22.40
2022-08-28T05:23:48.477Z,20.70
2022-08-28T05:24:48.548Z,20.70
2022-08-28T05:25:48.391Z,18.30
2022-08-28T05:26:48.510Z,19.90
2022-08-28T05:27:48.381Z,14.30
2022-08-28T05:28:48.345Z,15.70
2022-08-28T05:29:48.387Z,17.40
2022-08-28T05:30:48.356Z,20.10
2022-08-28T05:31:49.392Z,17.60
2022-08-28T05:32:48.340Z,17.00
2022-08-28T05:33:48.331Z,22.20
2022-08-28T05:34:48.379Z,17.70
2022-08-28T05:35:48.348Z,19.50
2022-08-28T05:36:48.353Z,20.40
2022-08-28T05:37:48.303Z,20.20
2022-08-28T05:38:48.293Z,25.20
2022-08-28T05:39:48.282Z,18.30
2022-08-28T05:40:48.356Z,21.30
2022-08-28T05:41:48.317Z,20.40
2022-08-28T05:42:48.241Z,20.30
2022-08-28T05:43:48.315Z,18.80
2022-08-28T05:44:48.271Z,19.40
2022-08-28T05:45:49.247Z,18.50
2022-08-28T05:46:48.223Z,20.90
2022-08-28T05:47:48.145Z,17.80
2022-08-28T05:48:48.139Z,23.10
2022-08-28T05:49:48.152Z,14.80
2022-08-28T05:50:48.271Z,19.60
2022-08-28T05:51:48.158Z,17.90
2022-08-28T05:52:48.141Z,22.80
2022-08-28T05:53:48.211Z,21.70
2022-08-28T05:54:48.169Z,20.30
2022-08-28T05:55:50.663Z,20.90
2022-08-28T05:56:48.163Z,20.00
2022-08-28T05:57:48.148Z,18.60
2022-08-28T05:58:48.143Z,18.70
2022-08-28T05:59:48.139Z,15.70
2022-08-28T06:00:48.147Z,14.90
2022-08-28T06:01:48.572Z,20.80
2022-08-28T06:02:48.189Z,15.60
2022-08-28T06:03:48.189Z,20.30
2022-08-28T06:04:48.160Z,18.10
2022-08-28T06:05:48.166Z,17.60
2022-08-28T06:06:48.245Z,22.10
2022-08-28T06:07:48.079Z,22.50
2022-08-28T06:08:56.125Z,16.70
2022-08-28T06:09:49.108Z,20.40
2022-08-28T06:10:50.917Z,22.30
2022-08-28T06:11:48.026Z,19.90
2022-08-28T06:12:48.132Z,15.10
2022-08-28T06:13:48.067Z,14.90
2022-08-28T06:14:48.055Z,21.10
2022-08-28T06:15:48.052Z,16.70
2022-08-28T06:16:48.015Z,17.90
2022-08-28T06:17:49.090Z,14.90
2022-08-28T06:18:48.003Z,15.30
2022-08-28T06:19:48.022Z,18.00
2022-08-28T06:20:47.963Z,17.70
2022-08-28T06:21:47.994Z,18.60
2022-08-28T06:22:48.049Z,16.40
2022-08-28T06:23:48.011Z,15.90
2022-08-28T06:24:47.951Z,13.80
2022-08-28T06:25:47.973Z,16.10
2022-08-28T06:26:48.015Z,16.30
2022-08-28T06:27:48.009Z,17.70
2022-08-28T06:28:47.998Z,15.70
2022-08-28T06:29:48.036Z,16.60
2022-08-28T06:31:18.070Z,11.40
2022-08-28T06:31:49.872Z,12.30
2022-08-28T06:32:47.915Z,19.00
2022-08-28T06:33:47.971Z,15.50
2022-08-28T06:34:47.877Z,13.50
2022-08-28T06:35:47.892Z,16.20
2022-08-28T06:36:53.108Z,15.00
2022-08-28T06:37:49.861Z,15.60
2022-08-28T06:38:47.861Z,12.60
2022-08-28T06:39:47.798Z,16.60
2022-08-28T06:40:47.762Z,15.70
2022-08-28T06:41:47.791Z,17.50
2022-08-28T06:42:47.730Z,15.90
2022-08-28T06:43:47.722Z,13.60
2022-08-28T06:44:47.810Z,14.90
2022-08-28T06:45:47.797Z,14.30
2022-08-28T06:46:47.712Z,14.50
2022-08-28T06:47:47.709Z,15.30
2022-08-28T06:48:47.708Z,16.20
2022-08-28T06:49:47.753Z,16.50
2022-08-28T06:50:47.675Z,18.40
2022-08-28T06:51:47.762Z,14.10
2022-08-28T06:52:47.777Z,16.10
2022-08-28T06:53:47.816Z,15.70
2022-08-28T06:54:55.471Z,15.30
2022-08-28T06:55:48.671Z,14.30
2022-08-28T06:56:47.759Z,15.90
2022-08-28T06:57:47.749Z,15.90
2022-08-28T06:58:50.123Z,15.10
2022-08-28T06:59:47.791Z,14.50
2022-08-28T07:00:49.725Z,13.90
2022-08-28T07:01:48.876Z,15.50
2022-08-28T07:02:47.759Z,15.40
2022-08-28T07:03:47.665Z,15.70
2022-08-28T07:04:47.685Z,14.00
2022-08-28T07:05:47.705Z,15.00
2022-08-28T07:06:52.806Z,15.30
2022-08-28T07:07:48.639Z,14.50
2022-08-28T07:08:47.684Z,11.50
2022-08-28T07:09:47.668Z,15.50
2022-08-28T07:10:47.687Z,15.80
2022-08-28T07:11:47.667Z,18.70
2022-08-28T07:12:47.599Z,18.10
2022-08-28T07:13:47.645Z,11.90
2022-08-28T07:14:47.573Z,15.70
2022-08-28T07:15:47.789Z,15.20
2022-08-28T07:16:47.543Z,16.80
2022-08-28T07:17:47.553Z,15.70
2022-08-28T07:18:47.599Z,13.70
2022-08-28T07:19:47.589Z,13.20
2022-08-28T07:20:47.530Z,12.90
2022-08-28T07:21:47.584Z,12.70
2022-08-28T07:22:47.549Z,14.80
2022-08-28T07:23:48.515Z,14.50
2022-08-28T07:24:47.536Z,14.60
2022-08-28T07:25:47.564Z,10.50
2022-08-28T07:26:47.503Z,12.10
2022-08-28T07:27:47.474Z,12.30
2022-08-28T07:28:47.493Z,14.70
2022-08-28T07:29:47.579Z,13.20
2022-08-28T07:30:47.596Z,11.20
2022-08-28T07:31:47.513Z,11.40
2022-08-28T07:32:47.513Z,12.10
2022-08-28T07:33:47.469Z,16.80
2022-08-28T07:34:48.510Z,15.80
2022-08-28T07:35:47.427Z,15.00
2022-08-28T07:36:47.603Z,12.50
2022-08-28T07:37:47.439Z,13.10
2022-08-28T07:38:48.243Z,14.50
2022-08-28T07:39:47.338Z,17.00
2022-08-28T07:40:47.365Z,15.60
2022-08-28T07:41:47.335Z,14.00
2022-08-28T07:42:47.340Z,14.30
2022-08-28T07:43:47.327Z,13.90
2022-08-28T07:44:47.313Z,13.50
2022-08-28T07:45:47.328Z,15.50
2022-08-28T07:46:47.294Z,14.00
2022-08-28T07:47:47.358Z,12.30
2022-08-28T07:48:47.282Z,13.90
2022-08-28T07:49:47.249Z,13.60
2022-08-28T07:50:47.268Z,11.20
2022-08-28T07:51:47.300Z,12.80
2022-08-28T07:52:47.260Z,11.40
2022-08-28T07:53:47.244Z,13.50
2022-08-28T07:54:47.208Z,14.90
2022-08-28T07:55:47.242Z,13.10
2022-08-28T07:56:47.313Z,16.30
2022-08-28T07:57:47.268Z,14.20
2022-08-28T07:58:47.236Z,17.30
2022-08-28T07:59:47.268Z,13.60
2022-08-28T08:00:47.243Z,11.00
2022-08-28T08:01:47.292Z,16.40
2022-08-28T08:02:47.280Z,14.90
2022-08-28T08:03:47.269Z,11.50
2022-08-28T08:04:47.235Z,14.50
2022-08-28T08:05:47.251Z,16.00
2022-08-28T08:06:47.265Z,11.90
2022-08-28T08:07:47.245Z,14.00
2022-08-28T08:08:47.318Z,15.90
2022-08-28T08:09:47.188Z,15.40
2022-08-28T08:10:47.193Z,13.00
2022-08-28T08:11:47.220Z,13.10
2022-08-28T08:12:47.188Z,13.70
2022-08-28T08:13:47.195Z,14.70
2022-08-28T08:14:47.228Z,16.40
2022-08-28T08:15:47.250Z,15.00
2022-08-28T08:16:47.227Z,15.50
2022-08-28T08:17:47.134Z,17.10
2022-08-28T08:18:47.243Z,16.20
2022-08-28T08:19:47.155Z,13.30
2022-08-28T08:20:47.088Z,12.90
2022-08-28T08:21:47.129Z,14.50
2022-08-28T08:22:47.081Z,14.50
2022-08-28T08:23:47.096Z,18.70
2022-08-28T08:24:47.180Z,17.90
2022-08-28T08:25:47.088Z,22.30
2022-08-28T08:26:47.071Z,16.20
2022-08-28T08:27:49.062Z,14.00
2022-08-28T08:28:47.042Z,14.50
2022-08-28T08:29:47.082Z,14.40
2022-08-28T08:30:47.081Z,17.60
2022-08-28T08:31:47.049Z,17.00
2022-08-28T08:32:47.055Z,13.20
2022-08-28T08:33:47.047Z,20.90
2022-08-28T08:34:47.051Z,12.60
2022-08-28T08:35:47.041Z,19.40
2022-08-28T08:36:46.978Z,23.40
2022-08-28T08:37:46.982Z,28.60
2022-08-28T08:38:46.866Z,15.70
2022-08-28T08:39:46.903Z,17.10
2022-08-28T08:40:46.926Z,12.10
2022-08-28T08:41:46.892Z,16.50
2022-08-28T08:42:46.872Z,12.60
2022-08-28T08:43:46.829Z,13.60
2022-08-28T08:44:46.887Z,12.00
2022-08-28T08:45:46.837Z,13.30
2022-08-28T08:46:46.841Z,11.90
2022-08-28T08:47:46.836Z,13.60
2022-08-28T08:48:46.795Z,12.80
2022-08-28T08:49:46.837Z,13.80
2022-08-28T08:50:46.784Z,18.70
2022-08-28T08:51:46.798Z,13.90
2022-08-28T08:52:46.773Z,23.10
2022-08-28T08:53:46.871Z,20.00
2022-08-28T08:54:46.824Z,13.80
2022-08-28T08:55:46.887Z,13.40
2022-08-28T08:56:46.893Z,15.10
2022-08-28T08:57:49.302Z,10.90
2022-08-28T08:58:46.741Z,17.40
2022-08-28T08:59:46.818Z,13.90
2022-08-28T09:00:46.890Z,14.60
2022-08-28T09:01:46.884Z,16.70
2022-08-28T09:02:46.752Z,17.60
2022-08-28T09:03:46.782Z,14.20
2022-08-28T09:04:46.784Z,11.90
2022-08-28T09:05:46.822Z,13.30
2022-08-28T09:06:46.760Z,12.80
2022-08-28T09:07:49.226Z,12.80
2022-08-28T09:08:47.726Z,11.00
2022-08-28T09:09:46.767Z,11.80
2022-08-28T09:10:46.739Z,11.70
2022-08-28T09:11:46.784Z,8.50
2022-08-28T09:12:47.696Z,10.30
2022-08-28T09:13:46.716Z,12.90
2022-08-28T09:14:46.754Z,12.50
2022-08-28T09:15:50.509Z,12.10
2022-08-28T09:16:47.713Z,12.20
2022-08-28T09:17:46.674Z,12.60
2022-08-28T09:18:46.688Z,8.90
2022-08-28T09:19:46.711Z,11.90
2022-08-28T09:20:46.969Z,10.80
2022-08-28T09:21:46.807Z,11.10
2022-08-28T09:22:46.695Z,10.10
2022-08-28T09:23:46.869Z,13.80
2022-08-28T09:24:46.613Z,13.30
2022-08-28T09:25:46.614Z,11.00
2022-08-28T09:26:48.581Z,10.80
2022-08-28T09:27:47.641Z,10.50
2022-08-28T09:28:46.535Z,12.50
2022-08-28T09:29:46.514Z,11.00
2022-08-28T09:30:46.641Z,14.50
2022-08-28T09:31:46.598Z,10.70
2022-08-28T09:32:46.587Z,11.50
2022-08-28T09:33:46.560Z,12.40
2022-08-28T09:34:46.546Z,13.70
2022-08-28T09:35:46.560Z,13.50
2022-08-28T09:36:46.550Z,15.60
2022-08-28T09:37:46.578Z,11.30
2022-08-28T09:38:46.506Z,14.40
2022-08-28T09:39:48.845Z,12.80
2022-08-28T09:40:47.461Z,14.80
2022-08-28T09:41:46.418Z,10.90
2022-08-28T09:42:46.432Z,9.90
2022-08-28T09:43:46.423Z,10.40
2022-08-28T09:44:46.538Z,11.10
2022-08-28T09:45:46.402Z,15.10
2022-08-28T09:46:46.478Z,10.10
2022-08-28T09:47:47.291Z,12.50
2022-08-28T09:48:46.495Z,15.20
2022-08-28T09:49:46.421Z,11.50
2022-08-28T09:50:46.434Z,10.40
2022-08-28T09:51:46.435Z,11.60
2022-08-28T09:52:46.441Z,10.60
2022-08-28T09:53:46.458Z,8.10
2022-08-28T09:54:46.380Z,9.50
2022-08-28T09:55:46.415Z,11.10
2022-08-28T09:56:46.373Z,8.50
2022-08-28T09:57:46.495Z,12.70
2022-08-28T09:58:46.437Z,13.00
2022-08-28T09:59:46.434Z,11.30
2022-08-28T10:00:46.432Z,9.60
2022-08-28T10:01:46.507Z,11.00
2022-08-28T10:02:46.363Z,12.20
2022-08-28T10:03:46.455Z,12.80
2022-08-28T10:04:46.486Z,12.40
2022-08-28T10:05:46.408Z,9.20
2022-08-28T10:06:46.325Z,10.10
2022-08-28T10:07:46.398Z,11.30
2022-08-28T10:08:46.341Z,11.40
2022-08-28T10:09:46.928Z,10.20
2022-08-28T10:10:46.309Z,9.50
2022-08-28T10:11:46.295Z,8.00
2022-08-28T10:12:46.304Z,7.80
2022-08-28T10:13:46.289Z,15.70
2022-08-28T10:14:46.549Z,13.70
2022-08-28T10:15:46.352Z,12.00
2022-08-28T10:16:46.263Z,9.20
2022-08-28T10:17:46.255Z,8.40
2022-08-28T10:18:46.220Z,11.30
2022-08-28T10:19:46.316Z,10.30
2022-08-28T10:20:46.237Z,10.30
2022-08-28T10:21:46.191Z,11.20
2022-08-28T10:22:46.281Z,9.60
2022-08-28T10:23:46.220Z,8.90
2022-08-28T10:24:46.251Z,10.80
2022-08-28T10:25:46.246Z,12.10
2022-08-28T10:26:46.245Z,13.30
2022-08-28T10:27:46.158Z,15.60
2022-08-28T10:28:46.226Z,9.60
2022-08-28T10:29:46.140Z,12.00
2022-08-28T10:30:46.267Z,10.80
2022-08-28T10:31:46.154Z,10.80
2022-08-28T10:32:47.189Z,12.30
2022-08-28T10:33:46.172Z,11.90
2022-08-28T10:34:46.137Z,11.90
2022-08-28T10:35:46.176Z,10.90
2022-08-28T10:36:46.128Z,10.00
2022-08-28T10:37:47.084Z,7.20
2022-08-28T10:38:50.806Z,9.10
2022-08-28T10:39:48.026Z,8.00
2022-08-28T10:40:46.020Z,10.60
2022-08-28T10:41:46.008Z,9.80
2022-08-28T10:42:45.988Z,7.90
2022-08-28T10:43:45.980Z,9.50
2022-08-28T10:44:45.989Z,9.00
2022-08-28T10:45:46.105Z,10.50
2022-08-28T10:46:46.136Z,8.90
2022-08-28T10:47:46.013Z,9.90
2022-08-28T10:48:45.950Z,11.30
2022-08-28T10:49:46.084Z,10.00
2022-08-28T10:50:46.027Z,14.90
2022-08-28T10:51:46.133Z,11.00
2022-08-28T10:52:46.008Z,8.80
2022-08-28T10:53:45.991Z,9.10
2022-08-28T10:54:45.979Z,8.60
2022-08-28T10:55:45.964Z,11.80
2022-08-28T10:56:46.007Z,7.90
2022-08-28T10:57:46.874Z,9.80
2022-08-28T10:58:45.996Z,9.00
2022-08-28T10:59:45.953Z,8.80
2022-08-28T11:00:45.859Z,8.40
2022-08-28T11:01:46.032Z,12.20
2022-08-28T11:02:46.029Z,14.20
2022-08-28T11:03:45.917Z,10.30
2022-08-28T11:04:45.989Z,8.10
2022-08-28T11:05:53.488Z,8.10
2022-08-28T11:06:47.915Z,10.70
2022-08-28T11:07:45.956Z,8.60
2022-08-28T11:08:45.943Z,9.00
2022-08-28T11:09:45.849Z,8.40
2022-08-28T11:10:45.964Z,8.10
2022-08-28T11:11:45.896Z,8.20
2022-08-28T11:12:45.946Z,9.50
2022-08-28T11:13:45.805Z,10.30
2022-08-28T11:14:48.570Z,9.00
2022-08-28T11:15:45.832Z,8.80
2022-08-28T11:16:45.920Z,9.50
2022-08-28T11:17:45.836Z,9.70
2022-08-28T11:18:45.824Z,9.80
2022-08-28T11:19:50.262Z,9.90
2022-08-28T11:20:47.786Z,9.90
2022-08-28T11:21:45.757Z,9.40
2022-08-28T11:22:45.701Z,8.10
2022-08-28T11:23:45.743Z,9.00
2022-08-28T11:24:45.688Z,8.60
2022-08-28T11:25:45.708Z,7.20
2022-08-28T11:26:45.693Z,9.30
2022-08-28T11:27:45.696Z,10.50
2022-08-28T11:28:45.662Z,9.40
2022-08-28T11:29:45.639Z,8.60
2022-08-28T11:30:45.699Z,9.20
2022-08-28T11:31:45.642Z,8.20
2022-08-28T11:32:46.937Z,10.30
2022-08-28T11:33:45.606Z,10.50
2022-08-28T11:34:45.741Z,10.60
2022-08-28T11:35:45.785Z,8.90
2022-08-28T11:36:45.695Z,9.90
2022-08-28T11:37:45.677Z,8.30
2022-08-28T11:38:45.686Z,11.30
2022-08-28T11:39:46.802Z,7.30
2022-08-28T11:40:45.702Z,9.20
2022-08-28T11:41:45.635Z,9.80
2022-08-28T11:42:45.632Z,11.00
2022-08-28T11:43:46.636Z,9.40
2022-08-28T11:44:45.724Z,10.60
2022-08-28T11:45:46.520Z,10.20
2022-08-28T11:46:45.525Z,7.90
2022-08-28T11:47:45.592Z,8.70
2022-08-28T11:48:45.644Z,9.60
2022-08-28T11:49:45.670Z,11.10
2022-08-28T11:50:45.578Z,9.20
2022-08-28T11:51:45.569Z,7.00
2022-08-28T11:52:45.627Z,8.10
2022-08-28T11:53:45.602Z,9.70
2022-08-28T11:54:45.744Z,9.50
2022-08-28T11:55:46.506Z,10.30
2022-08-28T11:56:45.581Z,9.50
2022-08-28T11:57:45.608Z,8.50
2022-08-28T11:58:45.620Z,7.80
2022-08-28T11:59:45.481Z,10.50
2022-08-28T12:00:45.613Z,7.70
2022-08-28T12:01:45.522Z,13.50
2022-08-28T12:02:45.572Z,8.60
2022-08-28T12:03:45.505Z,9.30
2022-08-28T12:04:45.668Z,8.40
2022-08-28T12:05:46.552Z,8.90
2022-08-28T12:06:45.490Z,6.70
2022-08-28T12:07:45.494Z,9.00
2022-08-28T12:08:45.475Z,7.50
2022-08-28T12:09:45.456Z,8.40
2022-08-28T12:10:45.547Z,8.20
2022-08-28T12:11:45.358Z,10.10
2022-08-28T12:12:45.345Z,7.20
2022-08-28T12:13:45.351Z,7.20
2022-08-28T12:14:45.318Z,7.30
2022-08-28T12:15:45.383Z,8.60
2022-08-28T12:16:45.356Z,6.90
2022-08-28T12:17:45.335Z,9.90
2022-08-28T12:18:45.301Z,9.10
2022-08-28T12:19:55.306Z,8.60
2022-08-28T12:20:47.318Z,9.20
2022-08-28T12:21:45.682Z,7.60
2022-08-28T12:22:45.339Z,8.40
2022-08-28T12:23:45.391Z,7.90
2022-08-28T12:24:45.326Z,7.50
2022-08-28T12:25:46.110Z,7.00
2022-08-28T12:26:45.432Z,8.00
2022-08-28T12:27:45.357Z,8.70
2022-08-28T12:28:45.370Z,9.30
2022-08-28T12:29:45.304Z,9.00
2022-08-28T12:30:45.441Z,7.50
2022-08-28T12:31:45.357Z,8.10
2022-08-28T12:32:45.387Z,7.50
2022-08-28T12:33:45.313Z,6.50
2022-08-28T12:34:45.289Z,14.20
2022-08-28T12:35:45.274Z,10.60
2022-08-28T12:36:48.919Z,6.70
2022-08-28T12:37:51.856Z,7.40
2022-08-28T12:38:46.228Z,32.20
2022-08-28T12:39:45.264Z,13.20
2022-08-28T12:40:45.354Z,10.30
2022-08-28T12:41:45.247Z,9.70
2022-08-28T12:42:45.312Z,8.80
2022-08-28T12:43:46.738Z,9.30
2022-08-28T12:44:45.305Z,11.10
2022-08-28T12:45:45.279Z,8.20
2022-08-28T12:46:45.087Z,10.00
2022-08-28T12:47:45.229Z,7.80
2022-08-28T12:48:45.223Z,9.50
2022-08-28T12:49:45.161Z,11.70
2022-08-28T12:50:45.179Z,10.50
2022-08-28T12:51:45.167Z,10.20
2022-08-28T12:52:45.178Z,11.10
2022-08-28T12:53:45.242Z,8.40
2022-08-28T12:54:45.115Z,9.30
2022-08-28T12:55:45.157Z,8.50
2022-08-28T12:56:45.123Z,9.40
2022-08-28T12:57:45.086Z,8.30
2022-08-28T12:58:45.120Z,9.40
2022-08-28T12:59:45.182Z,8.50
2022-08-28T13:00:45.117Z,8.60
2022-08-28T13:01:45.186Z,6.30
2022-08-28T13:02:50.116Z,8.80
2022-08-28T13:03:47.127Z,8.30
2022-08-28T13:04:45.035Z,8.60
2022-08-28T13:05:45.110Z,8.30
2022-08-28T13:06:45.078Z,11.50
2022-08-28T13:07:45.044Z,10.80
2022-08-28T13:08:45.034Z,11.80
2022-08-28T13:09:45.027Z,8.80
2022-08-28T13:10:45.040Z,7.20
2022-08-28T13:11:44.982Z,9.10
2022-08-28T13:12:54.798Z,7.10
2022-08-28T13:13:45.917Z,9.80
2022-08-28T13:14:44.924Z,10.60
2022-08-28T13:15:44.936Z,7.40
2022-08-28T13:16:44.962Z,8.50
2022-08-28T13:17:44.884Z,7.90
2022-08-28T13:18:44.858Z,7.70
2022-08-28T13:19:44.872Z,11.20
2022-08-28T13:20:44.851Z,9.10
2022-08-28T13:21:44.847Z,7.40
2022-08-28T13:22:45.858Z,6.90
2022-08-28T13:23:45.844Z,7.50
2022-08-28T13:24:44.886Z,7.40
2022-08-28T13:25:44.866Z,9.80
2022-08-28T13:26:44.805Z,7.40
2022-08-28T13:27:44.760Z,6.90
2022-08-28T13:28:44.822Z,8.40
2022-08-28T13:29:44.952Z,7.10
2022-08-28T13:30:44.991Z,7.00
2022-08-28T13:31:44.861Z,7.90
2022-08-28T13:32:44.805Z,6.90
2022-08-28T13:33:44.860Z,7.70
2022-08-28T13:34:46.111Z,7.50
2022-08-28T13:35:44.882Z,6.30
2022-08-28T13:36:44.855Z,8.00
2022-08-28T13:37:44.827Z,9.30
2022-08-28T13:38:44.793Z,10.40
2022-08-28T13:39:44.793Z,6.30
2022-08-28T13:40:57.558Z,10.50
2022-08-28T13:41:46.783Z,7.60
2022-08-28T13:42:44.761Z,10.70
2022-08-28T13:43:44.730Z,6.90
2022-08-28T13:44:44.791Z,8.50
2022-08-28T13:45:44.889Z,8.40
2022-08-28T13:46:44.660Z,8.40
2022-08-28T13:47:44.848Z,9.20
2022-08-28T13:48:44.733Z,7.50
2022-08-28T13:49:44.814Z,7.20
2022-08-28T13:50:47.152Z,7.70
2022-08-28T13:51:44.793Z,7.70
2022-08-28T13:52:44.745Z,9.70
2022-08-28T13:53:44.765Z,9.10
2022-08-28T13:54:45.465Z,8.60
2022-08-28T13:55:44.720Z,9.00
2022-08-28T13:56:44.689Z,9.60
2022-08-28T13:57:44.666Z,8.90
2022-08-28T13:58:44.703Z,8.80
2022-08-28T13:59:45.655Z,9.60
2022-08-28T14:00:44.770Z,7.20
2022-08-28T14:01:44.797Z,5.70
2022-08-28T14:02:44.742Z,6.00
2022-08-28T14:03:44.662Z,6.60
2022-08-28T14:04:44.608Z,9.90
2022-08-28T14:05:44.649Z,8.90
2022-08-28T14:06:44.652Z,9.00
2022-08-28T14:07:45.043Z,6.80
2022-08-28T14:08:44.648Z,9.90
2022-08-28T14:09:44.600Z,6.40
2022-08-28T14:10:44.582Z,11.80
2022-08-28T14:11:44.509Z,5.50
2022-08-28T14:12:44.522Z,6.80
2022-08-28T14:13:47.265Z,8.30
2022-08-28T14:14:45.505Z,7.10